createdAt,value
2022-09-22T00:01:34.485Z,3.43
2022-09-22T00:04:07.084Z,3.40
2022-09-22T00:06:39.133Z,3.30
2022-09-22T00:09:11.978Z,3.40
2022-09-22T00:11:44.866Z,3.40
2022-09-22T00:14:28.270Z,3.50
2022-09-22T00:17:03.370Z,3.40
2022-09-22T00:19:35.555Z,3.37
2022-09-22T00:22:04.982Z,3.30
2022-09-22T00:24:33.439Z,3.47
2022-09-22T00:27:01.214Z,3.40
2022-09-22T00:29:30.694Z,3.30
2022-09-22T00:32:01.191Z,3.33
2022-09-22T00:34:31.107Z,3.40
2022-09-22T00:36:58.817Z,3.33
2022-09-22T00:39:27.452Z,3.30
2022-09-22T00:41:54.959Z,3.30
2022-09-22T00:44:34.178Z,3.37
2022-09-22T00:47:28.938Z,3.30
2022-09-22T00:50:21.219Z,3.33
2022-09-22T00:53:13.671Z,3.50
2022-09-22T00:56:07.227Z,3.47
2022-09-22T00:58:47.512Z,3.30
2022-09-22T01:01:17.485Z,3.30
2022-09-22T01:03:47.064Z,3.33
2022-09-22T01:06:25.723Z,3.40
2022-09-22T01:08:56.170Z,3.27
2022-09-22T01:11:30.287Z,3.30
2022-09-22T01:14:39.779Z,3.37
2022-09-22T01:17:38.211Z,3.50
2022-09-22T01:20:39.196Z,3.37
2022-09-22T01:23:56.000Z,3.40
2022-09-22T01:26:31.162Z,3.43
2022-09-22T01:30:05.040Z,3.40
2022-09-22T01:33:12.956Z,3.40
2022-09-22T01:36:18.084Z,3.30
2022-09-22T01:39:28.880Z,3.40
2022-09-22T01:42:34.286Z,3.33
2022-09-22T01:45:24.241Z,3.47
2022-09-22T01:48:00.312Z,3.40
2022-09-22T01:50:44.276Z,3.40
2022-09-22T01:53:18.176Z,3.40
2022-09-22T01:55:55.816Z,3.50
2022-09-22T01:58:37.121Z,3.50
2022-09-22T02:01:16.585Z,3.47
2022-09-22T02:04:17.574Z,3.47
2022-09-22T02:07:25.036Z,3.43
2022-09-22T02:09:54.308Z,3.47
2022-09-22T02:12:23.477Z,3.50
2022-09-22T02:14:52.694Z,3.50
2022-09-22T02:17:21.598Z,3.47
2022-09-22T02:19:51.489Z,3.60
2022-09-22T02:22:21.785Z,3.50
2022-09-22T02:24:50.861Z,3.57
2022-09-22T02:27:27.852Z,3.50
2022-09-22T02:30:05.818Z,3.50
2022-09-22T02:32:39.238Z,3.50
2022-09-22T02:35:09.841Z,3.53
2022-09-22T02:37:55.614Z,3.50
2022-09-22T02:41:13.709Z,3.63
2022-09-22T02:44:14.557Z,3.50
2022-09-22T02:47:11.389Z,3.47
2022-09-22T02:49:43.687Z,3.50
2022-09-22T02:52:15.290Z,3.57
2022-09-22T02:54:45.390Z,3.60
2022-09-22T02:57:14.326Z,3.63
2022-09-22T02:59:43.842Z,3.60
2022-09-22T03:02:12.934Z,3.53
2022-09-22T03:04:41.815Z,3.53
2022-09-22T03:07:10.594Z,3.63
2022-09-22T03:09:39.345Z,3.50
2022-09-22T03:12:08.286Z,3.50
2022-09-22T03:14:36.898Z,3.43
2022-09-22T03:17:05.978Z,3.50
2022-09-22T03:19:35.034Z,3.53
2022-09-22T03:22:03.978Z,3.50
2022-09-22T03:24:33.178Z,3.50
2022-09-22T03:27:02.082Z,3.47
2022-09-22T03:29:31.042Z,3.50
2022-09-22T03:32:00.526Z,3.50
2022-09-22T03:34:29.723Z,3.60
2022-09-22T03:36:57.758Z,3.50
2022-09-22T03:39:25.222Z,3.53
2022-09-22T03:41:52.686Z,3.50
2022-09-22T03:44:20.090Z,3.53
2022-09-22T03:46:47.574Z,3.57
2022-09-22T03:49:15.026Z,3.57
2022-09-22T03:51:42.596Z,3.50
2022-09-22T03:54:09.974Z,3.60
2022-09-22T03:56:37.413Z,3.47
2022-09-22T03:59:05.479Z,3.63
2022-09-22T04:01:33.863Z,3.57
2022-09-22T04:04:01.538Z,3.50
2022-09-22T04:06:28.979Z,3.57
2022-09-22T04:08:56.611Z,3.60
2022-09-22T04:11:24.464Z,3.60
2022-09-22T04:13:51.979Z,3.57
2022-09-22T04:16:19.562Z,3.60
2022-09-22T04:18:47.148Z,3.60
2022-09-22T04:21:14.551Z,3.53
2022-09-22T04:23:41.939Z,3.70
2022-09-22T04:26:09.377Z,3.60
2022-09-22T04:28:36.800Z,3.57
2022-09-22T04:31:04.318Z,3.60
2022-09-22T04:33:32.082Z,3.67
2022-09-22T04:35:59.568Z,3.60
2022-09-22T04:38:27.187Z,3.60
2022-09-22T04:40:54.719Z,3.60
2022-09-22T04:43:22.207Z,3.70
2022-09-22T04:45:49.731Z,3.70
2022-09-22T04:48:17.667Z,3.60
2022-09-22T04:50:47.993Z,3.60
2022-09-22T04:53:16.392Z,3.60
2022-09-22T04:55:43.826Z,3.63
2022-09-22T04:58:11.475Z,3.60
2022-09-22T05:00:38.919Z,3.60
2022-09-22T05:03:12.816Z,3.67
2022-09-22T05:05:40.530Z,3.57
2022-09-22T05:08:10.096Z,3.60
2022-09-22T05:10:37.560Z,3.53
2022-09-22T05:13:05.693Z,3.63
2022-09-22T05:15:34.461Z,3.60
2022-09-22T05:18:02.116Z,3.63
2022-09-22T05:20:29.773Z,3.60
2022-09-22T05:22:57.232Z,3.60
2022-09-22T05:25:24.929Z,3.57
2022-09-22T05:27:56.886Z,3.57
2022-09-22T05:30:26.812Z,3.57
2022-09-22T05:32:54.308Z,3.67
2022-09-22T05:35:24.656Z,3.60
2022-09-22T05:37:53.389Z,3.60
2022-09-22T05:40:23.859Z,3.70
2022-09-22T05:42:53.288Z,3.60
2022-09-22T05:45:21.744Z,3.60
2022-09-22T05:47:49.031Z,3.60
2022-09-22T05:50:19.966Z,3.53
2022-09-22T05:52:47.207Z,3.60
2022-09-22T05:55:14.916Z,3.50
2022-09-22T05:57:43.650Z,3.53
2022-09-22T06:00:12.155Z,3.60
2022-09-22T06:02:40.374Z,3.60
2022-09-22T06:05:07.929Z,3.53
2022-09-22T06:07:35.459Z,3.50
2022-09-22T06:10:03.257Z,3.47
2022-09-22T06:12:30.814Z,3.47
2022-09-22T06:14:58.221Z,3.50
2022-09-22T06:17:25.758Z,3.47
2022-09-22T06:19:53.149Z,3.43
2022-09-22T06:22:20.634Z,3.40
2022-09-22T06:24:48.721Z,3.30
2022-09-22T06:27:16.326Z,3.40
2022-09-22T06:29:43.993Z,3.43
2022-09-22T06:32:11.692Z,3.43
2022-09-22T06:34:39.317Z,3.33
2022-09-22T06:37:09.619Z,3.27
2022-09-22T06:39:39.871Z,3.30
2022-09-22T06:42:07.606Z,3.27
2022-09-22T06:44:35.637Z,3.30
2022-09-22T06:47:08.373Z,3.27
2022-09-22T06:49:35.846Z,3.30
2022-09-22T06:52:03.712Z,3.13
2022-09-22T06:54:31.217Z,3.23
2022-09-22T06:56:58.669Z,3.33
2022-09-22T06:59:26.210Z,3.40
2022-09-22T07:01:53.624Z,3.27
2022-09-22T07:04:23.156Z,3.30
2022-09-22T07:06:50.622Z,3.33
2022-09-22T07:09:18.119Z,3.30
2022-09-22T07:11:47.267Z,3.30
2022-09-22T07:14:15.105Z,3.30
2022-09-22T07:16:43.067Z,3.40
2022-09-22T07:19:10.564Z,3.37
2022-09-22T07:21:38.118Z,3.33
2022-09-22T07:24:08.101Z,3.30
2022-09-22T07:26:39.228Z,3.27
2022-09-22T07:29:13.097Z,3.30
2022-09-22T07:31:41.758Z,3.23
2022-09-22T07:34:09.510Z,3.30
2022-09-22T07:36:37.983Z,3.27
2022-09-22T07:39:10.132Z,3.20
2022-09-22T07:41:42.820Z,3.30
2022-09-22T07:44:31.676Z,3.03
2022-09-22T07:47:00.025Z,3.10
2022-09-22T07:49:27.530Z,3.17
2022-09-22T07:51:57.124Z,3.07
2022-09-22T07:54:26.684Z,2.93
2022-09-22T07:56:58.538Z,2.90
2022-09-22T07:59:27.317Z,2.97
2022-09-22T08:03:57.113Z,2.97
2022-09-22T08:06:24.694Z,2.73
2022-09-22T08:08:56.793Z,2.80
2022-09-22T08:11:28.807Z,2.77
2022-09-22T08:14:01.863Z,3.07
2022-09-22T08:16:32.959Z,2.73
2022-09-22T08:19:12.502Z,2.73
2022-09-22T08:21:50.071Z,2.70
2022-09-22T08:24:23.306Z,2.63
2022-09-22T08:26:55.877Z,3.77
2022-09-22T08:29:24.338Z,2.77
2022-09-22T08:31:51.982Z,3.10
2022-09-22T08:34:20.014Z,2.77
2022-09-22T08:36:48.492Z,2.67
2022-09-22T08:39:18.113Z,2.30
2022-09-22T08:41:48.120Z,2.00
2022-09-22T08:44:30.957Z,2.00
2022-09-22T08:47:02.014Z,2.13
2022-09-22T08:50:01.731Z,2.00
2022-09-22T08:52:42.304Z,2.00
2022-09-22T08:55:22.945Z,1.80
2022-09-22T08:58:06.428Z,1.80
2022-09-22T09:00:56.797Z,1.60
2022-09-22T09:03:42.177Z,1.70
2022-09-22T09:06:20.857Z,1.77
2022-09-22T09:09:23.274Z,1.77
2022-09-22T09:12:34.206Z,1.90
2022-09-22T09:15:15.709Z,1.87
2022-09-22T09:17:47.133Z,2.27
2022-09-22T09:20:26.245Z,2.10
2022-09-22T09:22:58.189Z,2.00
2022-09-22T09:25:32.005Z,2.03
2022-09-22T09:28:07.158Z,2.20
2022-09-22T09:31:05.014Z,2.20
2022-09-22T09:34:17.916Z,2.10
2022-09-22T09:37:01.051Z,2.20
2022-09-22T09:39:37.163Z,2.30
2022-09-22T09:42:25.564Z,2.00
2022-09-22T09:44:54.648Z,2.10
2022-09-22T09:47:47.527Z,2.10
2022-09-22T09:50:16.653Z,2.10
2022-09-22T09:52:44.798Z,2.30
2022-09-22T09:55:27.430Z,2.50
2022-09-22T09:58:10.943Z,2.20
2022-09-22T10:00:59.294Z,2.23
2022-09-22T10:03:36.473Z,2.37
2022-09-22T10:06:10.838Z,2.40
2022-09-22T10:08:51.375Z,2.50
2022-09-22T10:11:31.159Z,2.43
2022-09-22T10:13:59.475Z,2.40
2022-09-22T10:16:33.344Z,2.60
2022-09-22T10:19:31.383Z,2.60
2022-09-22T10:22:27.220Z,2.60
2022-09-22T10:25:01.210Z,2.50
2022-09-22T10:27:31.680Z,2.73
2022-09-22T10:30:11.278Z,2.63
2022-09-22T10:32:39.815Z,2.60
2022-09-22T10:35:31.183Z,2.60
2022-09-22T10:38:14.799Z,2.60
2022-09-22T10:40:47.730Z,2.60
2022-09-22T10:43:54.827Z,2.60
2022-09-22T10:46:34.583Z,2.40
2022-09-22T10:49:46.543Z,2.17
2022-09-22T10:52:30.575Z,2.10
2022-09-22T10:55:54.069Z,2.00
2022-09-22T10:58:59.963Z,2.03
2022-09-22T11:02:23.551Z,1.90
2022-09-22T11:05:51.007Z,1.90
2022-09-22T11:08:39.111Z,1.80
2022-09-22T11:11:43.011Z,1.67
2022-09-22T11:14:42.397Z,1.60
2022-09-22T11:17:47.488Z,1.67
2022-09-22T11:20:42.435Z,1.50
2022-09-22T11:23:46.875Z,2.07
2022-09-22T11:26:35.821Z,3.53
2022-09-22T11:29:49.903Z,4.17
2022-09-22T11:32:49.559Z,4.03
2022-09-22T11:35:54.300Z,3.80
2022-09-22T11:39:12.243Z,2.90
2022-09-22T11:41:52.868Z,2.60
2022-09-22T11:44:36.305Z,1.90
2022-09-22T11:47:28.160Z,2.00
2022-09-22T11:50:18.153Z,2.00
2022-09-22T11:53:06.624Z,2.23
2022-09-22T11:56:03.737Z,2.57
2022-09-22T11:58:36.076Z,2.40
2022-09-22T12:01:22.161Z,2.27
2022-09-22T12:04:01.562Z,2.20
2022-09-22T12:06:37.988Z,2.30
2022-09-22T12:09:13.752Z,2.20
2022-09-22T12:11:42.742Z,1.93
2022-09-22T12:14:14.737Z,2.13
2022-09-22T12:17:16.097Z,2.20
2022-09-22T12:20:10.560Z,2.50
2022-09-22T12:23:15.961Z,2.27
2022-09-22T12:26:10.436Z,2.10
2022-09-22T12:28:45.499Z,2.10
2022-09-22T12:31:16.333Z,1.90
2022-09-22T12:33:54.645Z,1.70
2022-09-22T12:36:40.846Z,1.63
2022-09-22T12:39:09.350Z,1.63
2022-09-22T12:42:04.447Z,1.60
2022-09-22T12:44:44.738Z,1.57
2022-09-22T12:47:33.537Z,1.60
2022-09-22T12:50:28.334Z,1.60
2022-09-22T12:53:03.268Z,1.50
2022-09-22T12:55:38.796Z,1.80
2022-09-22T12:58:22.094Z,1.80
2022-09-22T13:00:53.171Z,1.70
2022-09-22T13:03:26.241Z,1.80
2022-09-22T13:06:22.617Z,1.70
2022-09-22T13:08:52.810Z,1.90
2022-09-22T13:12:12.977Z,1.90
2022-09-22T13:15:11.778Z,1.83
2022-09-22T13:17:47.594Z,1.87
2022-09-22T13:20:22.661Z,1.87
2022-09-22T13:22:51.890Z,1.90
2022-09-22T13:25:29.094Z,2.00
2022-09-22T13:28:12.602Z,2.00
2022-09-22T13:30:42.514Z,1.90
2022-09-22T13:33:23.003Z,1.80
2022-09-22T13:36:11.087Z,2.00
2022-09-22T13:38:55.191Z,2.03
2022-09-22T13:41:27.446Z,2.20
2022-09-22T13:43:59.362Z,2.33
2022-09-22T13:46:41.650Z,2.40
2022-09-22T13:49:18.174Z,2.20
2022-09-22T13:51:56.212Z,2.60
2022-09-22T13:54:28.903Z,2.40
2022-09-22T13:56:57.649Z,2.60
2022-09-22T13:59:39.713Z,2.30
2022-09-22T14:02:11.231Z,2.40
2022-09-22T14:04:49.361Z,2.20
2022-09-22T14:07:17.691Z,2.30
2022-09-22T14:09:45.504Z,2.30
2022-09-22T14:12:13.447Z,2.40
2022-09-22T14:14:40.727Z,2.40
2022-09-22T14:17:18.724Z,2.37
2022-09-22T14:20:01.140Z,2.30
2022-09-22T14:22:34.451Z,2.40
2022-09-22T14:25:07.283Z,2.23
2022-09-22T14:27:55.376Z,2.30
2022-09-22T14:30:28.916Z,2.23
2022-09-22T14:33:03.309Z,2.17
2022-09-22T14:35:36.067Z,2.30
2022-09-22T14:38:18.002Z,2.20
2022-09-22T14:40:58.647Z,2.30
2022-09-22T14:43:41.971Z,2.10
2022-09-22T14:46:34.704Z,2.50
2022-09-22T14:49:37.286Z,2.10
2022-09-22T14:52:07.581Z,2.30
2022-09-22T14:54:35.484Z,2.20
2022-09-22T14:57:07.592Z,2.00
2022-09-22T14:59:57.403Z,2.10
2022-09-22T15:02:35.371Z,2.03
2022-09-22T15:05:04.068Z,2.20
2022-09-22T15:07:36.498Z,1.90
2022-09-22T15:10:27.848Z,2.10
2022-09-22T15:13:18.277Z,2.00
2022-09-22T15:15:48.855Z,2.30
2022-09-22T15:18:18.925Z,2.30
2022-09-22T15:20:58.761Z,2.17
2022-09-22T15:23:51.205Z,2.10
2022-09-22T15:26:25.286Z,2.10
2022-09-22T15:28:56.122Z,2.20
2022-09-22T15:31:27.978Z,2.20
2022-09-22T15:33:59.161Z,2.70
2022-09-22T15:36:31.840Z,2.40
2022-09-22T15:39:07.033Z,2.20
2022-09-22T15:41:35.296Z,2.30
2022-09-22T15:44:03.548Z,2.10
2022-09-22T15:46:36.373Z,2.20
2022-09-22T15:49:11.851Z,2.47
2022-09-22T15:51:39.502Z,2.80
2022-09-22T15:54:19.825Z,2.80
2022-09-22T15:56:50.509Z,2.77
2022-09-22T15:59:32.211Z,2.60
2022-09-22T16:02:01.122Z,2.50
2022-09-22T16:04:32.236Z,2.50
2022-09-22T16:07:08.484Z,2.50
2022-09-22T16:09:36.460Z,2.50
2022-09-22T16:12:07.437Z,2.60
2022-09-22T16:14:36.586Z,2.60
2022-09-22T16:17:04.038Z,2.60
2022-09-22T16:19:31.876Z,2.50
2022-09-22T16:21:59.318Z,2.60
2022-09-22T16:24:28.851Z,2.57
2022-09-22T16:26:56.303Z,2.57
2022-09-22T16:29:25.061Z,2.67
2022-09-22T16:31:52.613Z,2.87
2022-09-22T16:34:21.086Z,3.10
2022-09-22T16:36:48.439Z,3.00
2022-09-22T16:39:17.062Z,3.10
2022-09-22T16:41:46.201Z,3.03
2022-09-22T16:44:13.854Z,2.97
2022-09-22T16:46:41.317Z,2.90
2022-09-22T16:49:11.928Z,2.87
2022-09-22T16:51:43.036Z,2.70
2022-09-22T16:54:14.104Z,2.70
2022-09-22T16:56:44.311Z,2.80
2022-09-22T16:59:15.081Z,2.77
2022-09-22T17:01:43.884Z,2.73
2022-09-22T17:04:16.168Z,2.70
2022-09-22T17:06:43.828Z,2.67
2022-09-22T17:09:13.036Z,2.83
2022-09-22T17:11:43.560Z,2.70
2022-09-22T17:14:22.948Z,2.80
2022-09-22T17:16:53.660Z,2.83
2022-09-22T17:19:27.623Z,2.70
2022-09-22T17:21:56.737Z,2.80
2022-09-22T17:24:26.832Z,3.00
2022-09-22T17:26:58.204Z,3.00
2022-09-22T17:29:29.712Z,3.20
2022-09-22T17:32:02.495Z,3.00
2022-09-22T17:34:35.432Z,3.10
2022-09-22T17:37:03.974Z,2.93
2022-09-22T17:39:32.479Z,3.00
2022-09-22T17:42:00.199Z,2.90
2022-09-22T17:44:30.913Z,2.90
2022-09-22T17:47:16.956Z,3.07
2022-09-22T17:50:03.132Z,3.00
2022-09-22T17:52:33.307Z,3.00
2022-09-22T17:55:12.578Z,3.10
2022-09-22T17:57:45.378Z,3.03
2022-09-22T18:00:20.974Z,3.40
2022-09-22T18:02:50.825Z,3.50
2022-09-22T18:05:25.317Z,3.57
2022-09-22T18:07:57.577Z,3.43
2022-09-22T18:10:31.967Z,3.20
2022-09-22T18:13:00.306Z,3.13
2022-09-22T18:15:28.274Z,3.03
2022-09-22T18:17:57.750Z,3.10
2022-09-22T18:20:27.488Z,2.93
2022-09-22T18:22:55.891Z,3.00
2022-09-22T18:25:25.525Z,3.00
2022-09-22T18:27:53.429Z,3.13
2022-09-22T18:30:20.914Z,3.03
2022-09-22T18:32:48.834Z,3.07
2022-09-22T18:35:16.596Z,3.03
2022-09-22T18:37:44.027Z,3.10
2022-09-22T18:40:12.290Z,3.13
2022-09-22T18:42:41.280Z,3.07
2022-09-22T18:45:10.962Z,3.17
2022-09-22T18:47:40.771Z,3.20
2022-09-22T18:50:09.709Z,3.40
2022-09-22T18:52:38.084Z,3.27
2022-09-22T18:55:09.240Z,3.40
2022-09-22T18:57:36.729Z,3.27
2022-09-22T19:00:04.996Z,3.23
2022-09-22T19:02:32.183Z,3.20
2022-09-22T19:04:59.782Z,3.47
2022-09-22T19:07:42.647Z,3.30
2022-09-22T19:10:15.382Z,3.30
2022-09-22T19:12:43.146Z,3.30
2022-09-22T19:15:18.424Z,3.37
2022-09-22T19:17:49.117Z,3.23
2022-09-22T19:20:23.718Z,3.23
2022-09-22T19:22:52.516Z,3.20
2022-09-22T19:25:21.860Z,3.23
2022-09-22T19:27:52.340Z,3.40
2022-09-22T19:30:23.311Z,3.33
2022-09-22T19:32:52.469Z,3.23
2022-09-22T19:35:20.713Z,3.30
2022-09-22T19:37:48.719Z,3.20
2022-09-22T19:40:18.663Z,3.27
2022-09-22T19:42:47.509Z,3.10
2022-09-22T19:45:15.475Z,3.17
2022-09-22T19:47:42.993Z,3.17
2022-09-22T19:50:10.381Z,3.20
2022-09-22T19:52:38.763Z,3.17
2022-09-22T19:55:08.798Z,3.20
2022-09-22T19:57:38.218Z,3.17
2022-09-22T20:00:06.129Z,3.13
2022-09-22T20:02:39.157Z,3.30
2022-09-22T20:05:20.483Z,3.33
2022-09-22T20:07:50.633Z,3.20
2022-09-22T20:10:22.346Z,3.13
2022-09-22T20:12:51.846Z,3.27
2022-09-22T20:15:19.734Z,3.40
2022-09-22T20:17:48.090Z,3.40
2022-09-22T20:20:25.151Z,3.20
2022-09-22T20:22:59.920Z,3.40
2022-09-22T20:25:30.874Z,3.30
2022-09-22T20:27:58.827Z,3.47
2022-09-22T20:30:27.323Z,3.40
2022-09-22T20:32:54.833Z,3.43
2022-09-22T20:35:22.298Z,3.37
2022-09-22T20:37:51.306Z,3.37
2022-09-22T20:40:21.323Z,3.40
2022-09-22T20:42:49.887Z,3.40
2022-09-22T20:45:20.685Z,3.20
2022-09-22T20:47:49.027Z,3.30
2022-09-22T20:50:16.553Z,3.30
2022-09-22T20:52:44.031Z,3.27
2022-09-22T20:55:12.042Z,3.20
2022-09-22T20:57:40.147Z,3.50
2022-09-22T21:00:08.940Z,3.30
2022-09-22T21:02:36.464Z,3.10
2022-09-22T21:05:04.197Z,3.23
2022-09-22T21:07:33.059Z,3.40
2022-09-22T21:10:18.955Z,3.30
2022-09-22T21:12:46.412Z,3.27
2022-09-22T21:15:14.380Z,3.37
2022-09-22T21:17:43.986Z,3.30
2022-09-22T21:20:11.536Z,3.43
2022-09-22T21:22:38.989Z,3.20
2022-09-22T21:25:06.762Z,3.37
2022-09-22T21:27:34.680Z,3.30
2022-09-22T21:30:02.112Z,3.20
2022-09-22T21:32:29.524Z,3.17
2022-09-22T21:34:57.396Z,6.10
2022-09-22T21:37:24.967Z,3.30
2022-09-22T21:39:52.524Z,3.27
2022-09-22T21:42:20.000Z,3.47
2022-09-22T21:44:48.457Z,3.30
2022-09-22T21:47:15.832Z,3.53
2022-09-22T21:49:43.201Z,3.43
2022-09-22T21:52:10.632Z,3.50
2022-09-22T21:54:38.155Z,3.37
2022-09-22T21:57:05.638Z,3.27
2022-09-22T21:59:33.043Z,3.43
2022-09-22T22:02:00.578Z,3.40
2022-09-22T22:04:28.239Z,3.50
2022-09-22T22:06:55.937Z,3.47
2022-09-22T22:09:25.169Z,3.43
2022-09-22T22:11:57.373Z,3.47
2022-09-22T22:14:27.962Z,3.33
2022-09-22T22:16:55.814Z,3.43
2022-09-22T22:19:26.677Z,3.43
2022-09-22T22:21:54.904Z,3.30
2022-09-22T22:24:28.605Z,3.30
2022-09-22T22:27:01.619Z,3.47
2022-09-22T22:29:34.593Z,3.40
2022-09-22T22:32:06.214Z,3.47
2022-09-22T22:34:34.202Z,3.37
2022-09-22T22:37:01.745Z,3.50
2022-09-22T22:39:29.784Z,3.40
2022-09-22T22:41:57.320Z,3.40
2022-09-22T22:44:24.754Z,3.30
2022-09-22T22:46:51.676Z,3.40
2022-09-22T22:49:19.582Z,3.40
2022-09-22T22:51:49.019Z,3.43
2022-09-22T22:54:16.498Z,3.53
2022-09-22T22:56:46.831Z,3.40
2022-09-22T22:59:18.177Z,3.57
2022-09-22T23:01:45.607Z,3.20
2022-09-22T23:04:13.552Z,3.50
2022-09-22T23:06:45.179Z,3.50
2022-09-22T23:09:16.416Z,3.60
2022-09-22T23:11:46.085Z,3.40
2022-09-22T23:14:15.734Z,3.67
2022-09-22T23:16:46.388Z,3.50
2022-09-22T23:19:17.329Z,3.30
2022-09-22T23:21:45.378Z,3.30
2022-09-22T23:24:18.702Z,3.43
2022-09-22T23:26:46.870Z,3.47
2022-09-22T23:29:14.384Z,3.60
2022-09-22T23:31:41.885Z,3.47
2022-09-22T23:34:08.981Z,3.37
2022-09-22T23:36:36.483Z,3.40
2022-09-22T23:39:04.648Z,3.40
2022-09-22T23:41:35.118Z,3.40
2022-09-22T23:44:03.585Z,3.33
2022-09-22T23:46:31.638Z,3.37
2022-09-22T23:48:59.933Z,3.37
2022-09-22T23:51:27.882Z,3.40
2022-09-22T23:53:56.023Z,3.37
2022-09-22T23:56:24.326Z,3.40
2022-09-22T23:58:52.231Z,3.43
